Time,TemperatureF,DewpointF,PressureIn,WindDirection,WindDirectionDegrees,WindSpeedMPH,WindSpeedGustMPH,Humidity,HourlyPrecipIn,Conditions,Clouds,dailyrainin,SoftwareType,DateUTC
2013-08-02 00:09:00,58.4,54.0,30.18,SE,138,20.0,23.0,86,0.00,,,0.00,weatherlink.com 1.10,2013-08-02 07:09:00,
2013-08-02 00:24:00,58.8,55.0,30.18,SE,132,18.0,23.0,86,0.00,,,0.00,weatherlink.com 1.10,2013-08-02 07:24:00,
2013-08-02 00:39:00,59.0,55.0,30.19,SE,146,18.0,22.0,85,0.00,,,0.00,weatherlink.com 1.10,2013-08-02 07:39:00,
2013-08-02 00:54:00,59.2,55.0,30.19,SE,133,17.0,21.0,85,0.00,,,0.00,weatherlink.com 1.10,2013-08-02 07:54:00,
2013-08-02 01:09:00,59.3,55.0,30.19,SSE,153,20.0,22.0,84,0.00,,,0.00,weatherlink.com 1.10,2013-08-02 08:09:00,
2013-08-02 01:24:00,59.0,55.0,30.19,SSE,149,17.0,21.0,85,0.00,,,0.00,weatherlink.com 1.10,2013-08-02 08:24:00,
2013-08-02 01:39:00,58.2,54.0,30.19,SSE,148,21.0,23.0,86,0.00,,,0.00,weatherlink.com 1.10,2013-08-02 08:39:00,
2013-08-02 01:54:00,57.5,54.0,30.19,SSE,157,19.0,21.0,88,0.00,,,0.00,weatherlink.com 1.10,2013-08-02 08:54:00,
2013-08-02 02:09:00,57.1,54.0,30.19,SSE,165,19.0,21.0,88,0.00,,,0.00,weatherlink.com 1.10,2013-08-02 09:09:00,
2013-08-02 02:24:00,57.0,54.0,30.19,SE,146,14.0,22.0,89,0.00,,,0.00,weatherlink.com 1.10,2013-08-02 09:24:00,
2013-08-02 02:39:00,57.1,54.0,30.19,SSE,150,19.0,21.0,89,0.00,,,0.00,weatherlink.com 1.10,2013-08-02 09:39:00,
2013-08-02 02:54:00,57.3,54.0,30.19,SSE,164,20.0,21.0,88,0.00,,,0.00,weatherlink.com 1.10,2013-08-02 09:54:00,
2013-08-02 03:09:00,57.1,54.0,30.19,SSE,158,19.0,23.0,88,0.00,,,0.00,weatherlink.com 1.10,2013-08-02 10:09:00,
2013-08-02 03:24:00,56.8,54.0,30.19,SSE,156,19.0,24.0,89,0.00,,,0.00,weatherlink.com 1.10,2013-08-02 10:24:00,
2013-08-02 03:39:00,56.5,54.0,30.20,SSE,150,16.0,20.0,90,0.00,,,0.00,weatherlink.com 1.10,2013-08-02 10:39:00,
2013-08-02 03:54:00,56.6,54.0,30.20,SE,139,14.0,19.0,90,0.00,,,0.00,weatherlink.com 1.10,2013-08-02 10:54:00,
2013-08-02 04:09:00,56.8,54.0,30.20,SE,143,14.0,17.0,89,0.00,,,0.00,weatherlink.com 1.10,2013-08-02 11:09:00,
2013-08-02 04:24:00,56.8,54.0,30.20,SE,146,15.0,17.0,89,0.00,,,0.00,weatherlink.com 1.10,2013-08-02 11:24:00,
2013-08-02 04:39:00,56.7,54.0,30.20,SSE,152,11.0,17.0,89,0.00,,,0.00,weatherlink.com 1.10,2013-08-02 11:39:00,
2013-08-02 04:54:00,56.6,54.0,30.20,SE,142,10.0,12.0,90,0.00,,,0.00,weatherlink.com 1.10,2013-08-02 11:54:00,
2013-08-02 05:09:00,56.3,54.0,30.20,SE,143,13.0,14.0,90,0.00,,,0.00,weatherlink.com 1.10,2013-08-02 12:09:00,
2013-08-02 05:24:00,56.4,54.0,30.20,SE,131,11.0,13.0,90,0.00,,,0.00,weatherlink.com 1.10,2013-08-02 12:24:00,
2013-08-02 05:39:00,56.4,54.0,30.20,SSE,153,11.0,13.0,90,0.00,,,0.00,weatherlink.com 1.10,2013-08-02 12:39:00,
2013-08-02 05:54:00,56.2,54.0,30.21,SE,136,8.0,10.0,91,0.00,,,0.00,weatherlink.com 1.10,2013-08-02 12:54:00,
2013-08-02 06:09:00,56.5,54.0,30.21,SSE,153,9.0,12.0,90,0.00,,,0.00,weatherlink.com 1.10,2013-08-02 13:09:00,
2013-08-02 06:24:00,56.6,54.0,30.21,SE,146,8.0,10.0,90,0.00,,,0.00,weatherlink.com 1.10,2013-08-02 13:24:00,
2013-08-02 06:39:00,56.6,54.0,30.21,SE,141,8.0,10.0,90,0.00,,,0.00,weatherlink.com 1.10,2013-08-02 13:39:00,
2013-08-02 06:55:00,56.5,54.0,30.22,South,188,6.0,10.0,90,0.00,,,0.00,weatherlink.com 1.10,2013-08-02 13:55:00,
2013-08-02 07:09:00,56.3,54.0,30.22,SSE,155,10.0,10.0,90,0.00,,,0.00,weatherlink.com 1.10,2013-08-02 14:09:00,
2013-08-02 07:25:00,55.8,53.0,30.22,SSE,163,14.0,15.0,91,0.00,,,0.00,weatherlink.com 1.10,2013-08-02 14:25:00,
2013-08-02 07:40:00,55.4,53.0,30.23,SSE,156,13.0,16.0,92,0.00,,,0.00,weatherlink.com 1.10,2013-08-02 14:40:00,
2013-08-02 07:55:00,55.3,53.0,30.23,SE,139,9.0,12.0,93,0.00,,,0.00,weatherlink.com 1.10,2013-08-02 14:55:00,
2013-08-02 08:10:00,55.7,54.0,30.23,SE,142,8.0,10.0,92,0.00,,,0.00,weatherlink.com 1.10,2013-08-02 15:10:00,
2013-08-02 08:25:00,55.9,54.0,30.24,SE,143,7.0,10.0,92,0.00,,,0.00,weatherlink.com 1.10,2013-08-02 15:25:00,
2013-08-02 08:40:00,56.0,54.0,30.24,SE,131,8.0,11.0,92,0.00,,,0.00,weatherlink.com 1.10,2013-08-02 15:40:00,
2013-08-02 08:55:00,56.1,54.0,30.24,SE,132,8.0,9.0,92,0.00,,,0.00,weatherlink.com 1.10,2013-08-02 15:55:00,
2013-08-02 09:10:00,56.2,54.0,30.24,SE,129,7.0,8.0,92,0.00,,,0.00,weatherlink.com 1.10,2013-08-02 16:10:00,
2013-08-02 09:25:00,55.9,54.0,30.25,SE,129,10.0,12.0,92,0.00,,,0.00,weatherlink.com 1.10,2013-08-02 16:25:00,
2013-08-02 09:40:00,55.9,54.0,30.25,SE,146,13.0,14.0,93,0.00,,,0.00,weatherlink.com 1.10,2013-08-02 16:40:00,
2013-08-02 09:55:00,55.4,54.0,30.25,SE,142,13.0,16.0,93,0.00,,,0.00,weatherlink.com 1.10,2013-08-02 16:55:00,
2013-08-02 10:10:00,55.3,54.0,30.25,SE,139,13.0,15.0,94,0.00,,,0.00,weatherlink.com 1.10,2013-08-02 17:10:00,
2013-08-02 10:26:00,55.3,54.0,30.26,SE,146,13.0,14.0,94,0.00,,,0.00,weatherlink.com 1.10,2013-08-02 17:26:00,
2013-08-02 10:40:00,55.3,54.0,30.26,SE,139,13.0,16.0,95,0.00,,,0.00,weatherlink.com 1.10,2013-08-02 17:40:00,
2013-08-02 10:55:00,55.3,54.0,30.27,SSE,150,11.0,15.0,95,0.00,,,0.00,weatherlink.com 1.10,2013-08-02 17:55:00,
2013-08-02 11:10:00,55.5,54.0,30.27,SE,139,11.0,15.0,95,0.00,,,0.00,weatherlink.com 1.10,2013-08-02 18:10:00,
2013-08-02 11:25:00,55.4,54.0,30.27,SE,146,11.0,14.0,95,0.00,,,0.00,weatherlink.com 1.10,2013-08-02 18:25:00,
2013-08-02 11:40:00,55.4,54.0,30.27,SSE,153,13.0,13.0,96,0.00,,,0.00,weatherlink.com 1.10,2013-08-02 18:40:00,
2013-08-02 11:56:00,55.3,54.0,30.28,SSE,150,11.0,13.0,96,0.00,,,0.00,weatherlink.com 1.10,2013-08-02 18:56:00,
2013-08-02 12:10:00,55.4,54.0,30.28,SSE,150,12.0,14.0,96,0.00,,,0.00,weatherlink.com 1.10,2013-08-02 19:10:00,
2013-08-02 12:25:00,55.6,55.0,30.28,SSE,152,11.0,14.0,96,0.00,,,0.00,weatherlink.com 1.10,2013-08-02 19:25:00,
2013-08-02 12:40:00,55.7,55.0,30.28,SSE,157,12.0,13.0,97,0.00,,,0.00,weatherlink.com 1.10,2013-08-02 19:40:00,
2013-08-02 12:55:00,55.6,55.0,30.29,SSE,149,8.0,11.0,96,0.00,,,0.00,weatherlink.com 1.10,2013-08-02 19:55:00,
2013-08-02 13:10:00,55.8,55.0,30.29,SSE,153,10.0,11.0,97,0.00,,,0.00,weatherlink.com 1.10,2013-08-02 20:10:00,
2013-08-02 13:25:00,55.7,55.0,30.29,SSE,160,9.0,11.0,96,0.00,,,0.00,weatherlink.com 1.10,2013-08-02 20:25:00,
2013-08-02 13:40:00,55.8,55.0,30.29,SSE,153,9.0,11.0,96,0.00,,,0.00,weatherlink.com 1.10,2013-08-02 20:40:00,
2013-08-02 13:55:00,56.0,55.0,30.29,SSE,148,9.0,11.0,96,0.00,,,0.00,weatherlink.com 1.10,2013-08-02 20:55:00,
2013-08-02 14:10:00,56.4,55.0,30.29,SSE,148,11.0,12.0,96,0.00,,,0.00,weatherlink.com 1.10,2013-08-02 21:10:00,
2013-08-02 14:25:00,56.7,56.0,30.29,SSE,153,11.0,12.0,96,0.00,,,0.00,weatherlink.com 1.10,2013-08-02 21:25:00,
2013-08-02 14:40:00,56.8,56.0,30.29,SSE,156,10.0,12.0,96,0.00,,,0.00,weatherlink.com 1.10,2013-08-02 21:40:00,
2013-08-02 14:55:00,57.0,56.0,30.29,SSE,148,8.0,10.0,96,0.00,,,0.00,weatherlink.com 1.10,2013-08-02 21:55:00,
2013-08-02 15:10:00,57.1,56.0,30.29,SSE,149,8.0,10.0,96,0.00,,,0.00,weatherlink.com 1.10,2013-08-02 22:10:00,
2013-08-02 15:25:00,57.3,56.0,30.29,SSE,153,7.0,10.0,96,0.00,,,0.00,weatherlink.com 1.10,2013-08-02 22:25:00,
2013-08-02 15:40:00,57.4,56.0,30.28,SSE,149,9.0,9.0,95,0.00,,,0.00,weatherlink.com 1.10,2013-08-02 22:40:00,
2013-08-02 15:55:00,57.7,56.0,30.28,SE,142,8.0,10.0,95,0.00,,,0.00,weatherlink.com 1.10,2013-08-02 22:55:00,
2013-08-02 16:10:00,57.9,56.0,30.28,SE,131,9.0,10.0,94,0.00,,,0.00,weatherlink.com 1.10,2013-08-02 23:10:00,
2013-08-02 16:25:00,58.2,56.0,30.28,SE,137,9.0,11.0,93,0.00,,,0.00,weatherlink.com 1.10,2013-08-02 23:25:00,
2013-08-02 16:40:00,58.4,56.0,30.28,SE,143,8.0,11.0,92,0.00,,,0.00,weatherlink.com 1.10,2013-08-02 23:40:00,
2013-08-02 16:55:00,58.5,56.0,30.28,SE,143,8.0,10.0,92,0.00,,,0.00,weatherlink.com 1.10,2013-08-02 23:55:00,
2013-08-02 17:10:00,58.7,56.0,30.28,SSE,150,9.0,10.0,92,0.00,,,0.00,weatherlink.com 1.10,2013-08-03 00:10:00,
2013-08-02 17:25:00,58.9,56.0,30.28,SSE,153,11.0,12.0,91,0.00,,,0.00,weatherlink.com 1.10,2013-08-03 00:25:00,
2013-08-02 17:40:00,59.0,56.0,30.28,SSE,150,11.0,12.0,90,0.00,,,0.00,weatherlink.com 1.10,2013-08-03 00:40:00,
2013-08-02 17:55:00,59.0,56.0,30.28,SSE,148,9.0,13.0,90,0.00,,,0.00,weatherlink.com 1.10,2013-08-03 00:55:00,
2013-08-02 18:10:00,58.8,56.0,30.28,SSE,151,10.0,11.0,91,0.00,,,0.00,weatherlink.com 1.10,2013-08-03 01:10:00,
2013-08-02 18:25:00,58.6,56.0,30.28,SSE,155,9.0,12.0,91,0.00,,,0.00,weatherlink.com 1.10,2013-08-03 01:25:00,
2013-08-02 18:40:00,58.5,56.0,30.28,SE,142,9.0,10.0,91,0.00,,,0.00,weatherlink.com 1.10,2013-08-03 01:40:00,
2013-08-02 18:55:00,58.5,56.0,30.28,SE,143,9.0,11.0,92,0.00,,,0.00,weatherlink.com 1.10,2013-08-03 01:55:00,
2013-08-02 19:11:00,58.5,56.0,30.28,SSE,153,9.0,11.0,92,0.00,,,0.00,weatherlink.com 1.10,2013-08-03 02:11:00,
2013-08-02 19:26:00,58.4,56.0,30.27,SE,143,8.0,11.0,92,0.00,,,0.00,weatherlink.com 1.10,2013-08-03 02:26:00,
2013-08-02 19:41:00,58.2,56.0,30.28,SE,143,9.0,10.0,92,0.00,,,0.00,weatherlink.com 1.10,2013-08-03 02:41:00,
2013-08-02 19:56:00,58.2,56.0,30.29,SE,134,8.0,11.0,92,0.00,,,0.00,weatherlink.com 1.10,2013-08-03 02:56:00,
2013-08-02 20:11:00,58.0,56.0,30.29,SE,139,9.0,10.0,92,0.00,,,0.00,weatherlink.com 1.10,2013-08-03 03:11:00,
2013-08-02 20:26:00,57.9,56.0,30.30,SE,141,10.0,11.0,92,0.00,,,0.00,weatherlink.com 1.10,2013-08-03 03:26:00,
2013-08-02 20:40:00,57.8,56.0,30.29,SE,134,10.0,11.0,92,0.00,,,0.00,weatherlink.com 1.10,2013-08-03 03:40:00,
2013-08-02 20:56:00,57.8,56.0,30.29,SSE,160,11.0,13.0,92,0.00,,,0.00,weatherlink.com 1.10,2013-08-03 03:56:00,
2013-08-02 21:11:00,57.6,55.0,30.29,SSE,162,14.0,15.0,92,0.00,,,0.00,weatherlink.com 1.10,2013-08-03 04:11:00,
2013-08-02 21:26:00,57.1,55.0,30.29,SSE,149,8.0,14.0,92,0.00,,,0.00,weatherlink.com 1.10,2013-08-03 04:26:00,
2013-08-02 21:41:00,57.0,55.0,30.29,SSE,153,12.0,12.0,93,0.00,,,0.00,weatherlink.com 1.10,2013-08-03 04:41:00,
2013-08-02 21:56:00,56.8,55.0,30.30,SSE,153,11.0,13.0,93,0.00,,,0.00,weatherlink.com 1.10,2013-08-03 04:56:00,
2013-08-02 22:11:00,56.9,55.0,30.30,SSE,152,9.0,10.0,93,0.00,,,0.00,weatherlink.com 1.10,2013-08-03 05:11:00,
2013-08-02 22:26:00,57.0,55.0,30.30,SSE,159,8.0,11.0,93,0.00,,,0.00,weatherlink.com 1.10,2013-08-03 05:26:00,
2013-08-02 22:41:00,56.6,55.0,30.30,SSE,162,7.0,9.0,93,0.00,,,0.00,weatherlink.com 1.10,2013-08-03 05:41:00,
2013-08-02 22:56:00,56.2,55.0,30.30,SSE,153,7.0,8.0,94,0.00,,,0.00,weatherlink.com 1.10,2013-08-03 05:56:00,
2013-08-02 23:11:00,56.2,55.0,30.30,SSE,153,6.0,9.0,94,0.00,,,0.00,weatherlink.com 1.10,2013-08-03 06:11:00,
2013-08-02 23:26:00,56.1,55.0,30.30,SE,135,7.0,11.0,95,0.00,,,0.00,weatherlink.com 1.10,2013-08-03 06:26:00,
2013-08-02 23:41:00,56.8,55.0,30.29,SE,133,6.0,9.0,94,0.00,,,0.00,weatherlink.com 1.10,2013-08-03 06:41:00,
2013-08-02 23:56:00,56.6,55.0,30.30,SE,145,7.0,9.0,94,0.00,,,0.00,weatherlink.com 1.10,2013-08-03 06:56:00,